Latest Weather Observations for Alva Beach

IDQ60801

Issued at 4:32 pm EST Thursday 24 August 2017 (issued every 30 minutes, with the page automatically refreshed every 10 minutes)

About weather observations | Map of weather stations | Latest weather observations for QLD | Other Formats
Station Details ID: 033295 Name: ALVA BEACH Lat: -19.46 Lon: 147.48 Height: 7.5 m
Data from the previous 72 hours. | See also: Recent months at Alva Beach
Date/Time
EST
Temp
°C
App
Temp
°C
Dew
Point
°C
Rel
Hum
%
Delta-T
°C
Wind Press
QNH
hPa
Press
MSL
hPa
Rain since
9am
mm
Dir  Spd
km/h
Gust
km/h
Spd
kts
Gust
kts
24/04:30pm 23.9 23.1 15.1 58 5.3 NNE 13 19 7 10 1014.0 1014.0 0.0
24/04:00pm 24.3 23.2 15.2 57 5.5 NNE 15 19 8 10 1013.8 1013.8 0.0
24/03:30pm 24.4 23.2 15.1 56 5.6 NNE 15 19 8 10 1013.7 1013.7 0.0
24/03:00pm 24.6 23.8 15.2 55 5.6 NNE 13 17 7 9 1013.8 1013.8 0.0
24/02:30pm 25.0 24.3 15.3 55 5.8 NE 13 19 7 10 1014.1 1014.1 0.0
24/02:00pm 25.1 24.3 15.1 53 6.0 NE 13 17 7 9 1014.5 1014.5 0.0
24/01:30pm 24.9 24.1 15.2 54 5.8 NE 13 17 7 9 1015.0 1015.0 0.0
24/01:00pm 24.8 23.7 14.3 52 6.2 NE 13 17 7 9 1015.5 1015.5 0.0
24/12:30pm 24.9 24.4 15.0 54 5.9 ENE 11 15 6 8 1016.2 1016.2 0.0
24/12:00pm 25.3 25.2 15.0 53 6.2 NE 9 15 5 8 1016.5 1016.5 0.0
24/11:30am 25.3 25.2 15.0 53 6.2 NE 9 13 5 7 1016.8 1016.8 0.0
24/11:00am 25.4 25.4 15.1 53 6.2 NE 9 15 5 8 1017.4 1017.4 0.0
24/10:30am 24.6 24.3 14.4 53 6.0 NE 9 11 5 6 1017.8 1017.8 0.0
24/10:00am 24.3 23.9 14.1 53 6.0 NNE 9 11 5 6 1017.9 1017.9 0.0
24/09:30am 24.2 24.5 14.9 56 5.5 NNE 7 9 4 5 1018.1 1018.1 0.0
24/09:00am 24.3 24.7 15.2 57 5.4 NNE 7 9 4 5 1018.1 1018.1 13.4
24/08:30am 23.6 25.2 14.9 58 5.2 CALM 0 6 0 3 1017.9 1017.9 13.4
24/08:00am 21.4 23.2 15.5 69 3.5 CALM 0 0 0 0 1017.6 1017.6 13.4
24/07:30am 18.9 19.2 15.0 78 2.3 ENE 7 9 4 5 1017.7 1017.7 13.4
24/07:00am 16.9 16.7 14.7 87 1.3 ENE 9 11 5 6 1017.7 1017.7 13.4
24/06:30am 17.0 17.8 13.7 81 1.9 ENE 2 11 1 6 1017.1 1017.1 13.4
24/06:00am 17.4 17.9 13.9 80 2.0 ENE 4 7 2 4 1016.8 1016.8 13.4
24/05:30am 18.0 18.3 13.5 75 2.5 ENE 4 7 2 4 1016.8 1016.8 13.4
24/05:00am 21.6 21.2 15.2 67 3.8 ENE 11 15 6 8 1016.7 1016.7 13.4
24/04:30am 21.7 20.6 15.3 67 3.8 ENE 15 19 8 10 1016.6 1016.6 13.4
24/04:00am 21.7 20.9 15.1 66 3.9 ENE 13 15 7 8 1016.6 1016.6 13.4
24/03:30am 21.8 20.7 15.2 66 3.9 ENE 15 19 8 10 1016.7 1016.7 13.4
24/03:00am 22.0 20.9 15.4 66 3.9 ENE 15 19 8 10 1016.7 1016.7 13.4
24/02:30am 22.1 20.7 15.5 66 3.9 ENE 17 22 9 12 1016.8 1016.8 13.4
24/02:00am 22.2 20.4 15.5 66 4.0 ENE 19 24 10 13 1017.0 1017.0 13.4
24/01:30am 22.3 20.5 15.4 65 4.1 ENE 19 24 10 13 1017.3 1017.3 13.4
24/01:00am 22.3 20.9 15.6 66 4.0 ENE 17 20 9 11 1017.8 1017.8 13.4
24/12:30am 22.4 21.3 15.3 64 4.2 ENE 15 17 8 9 1018.2 1018.2 13.4
24/12:00am 22.4 21.7 15.3 64 4.2 ENE 13 17 7 9 1018.4 1018.4 13.4
 
Date/Time
EST
Temp
°C
App
Temp
°C
Dew
Point
°C
Rel
Hum
%
Delta-T
°C
Wind Press
QNH
hPa
Press
MSL
hPa
Rain since
9am
mm
Dir  Spd
km/h
Gust
km/h
Spd
kts
Gust
kts
23/11:30pm 22.5 21.5 15.6 65 4.1 NE 15 17 8 9 1018.3 1018.3 13.4
23/11:00pm 22.5 21.0 15.4 64 4.2 NE 17 20 9 11 1018.3 1018.3 13.4
23/10:30pm 22.5 21.1 15.6 65 4.1 NE 17 20 9 11 1018.3 1018.3 13.4
23/10:00pm 22.4 21.9 16.0 67 3.9 NE 13 17 7 9 1018.3 1018.3 13.4
23/09:30pm 22.5 21.7 16.1 67 3.9 NE 15 17 8 9 1018.2 1018.2 13.4
23/09:00pm 22.6 21.3 15.9 66 4.0 ENE 17 20 9 11 1018.3 1018.3 13.4
23/08:30pm 22.6 21.4 16.2 67 3.9 ENE 17 22 9 12 1018.3 1018.3 13.4
23/08:00pm 22.3 21.4 15.9 67 3.8 ENE 15 17 8 9 1018.1 1018.1 0.0
23/07:30pm 22.3 20.9 15.6 66 4.0 NE 17 20 9 11 1017.8 1017.8 0.0
23/07:00pm 22.2 21.5 15.3 65 4.1 NE 13 17 7 9 1017.6 1017.6 0.0
23/06:30pm 22.3 21.3 15.6 66 4.0 NE 15 19 8 10 1017.5 1017.5 0.0
23/06:00pm 22.6 21.6 15.7 65 4.1 NE 15 19 8 10 1017.1 1017.1 0.0
23/05:30pm 23.0 22.2 15.1 61 4.7 ENE 13 19 7 10 1017.2 1017.2 0.0
23/05:00pm 23.6 22.3 14.9 58 5.2 ENE 15 19 8 10 1017.1 1017.1 0.0
23/04:30pm 24.1 22.8 14.8 56 5.5 ENE 15 19 8 10 1016.9 1016.9 0.0
23/04:00pm 24.4 23.4 14.5 54 5.9 ENE 13 17 7 9 1016.9 1016.9 0.0
23/03:30pm 24.5 23.0 14.3 53 6.0 ENE 15 20 8 11 1016.7 1016.7 0.0
23/03:00pm 25.2 23.8 15.5 55 5.9 ENE 17 20 9 11 1016.7 1016.7 0.0
23/02:30pm 25.3 23.8 15.3 54 6.0 ENE 17 20 9 11 1016.9 1016.9 0.0
23/02:00pm 25.4 24.2 15.1 53 6.2 ENE 15 20 8 11 1017.5 1017.5 0.0
23/01:30pm 25.5 23.9 14.9 52 6.4 ENE 17 22 9 12 1017.7 1017.7 0.0
23/01:00pm 25.5 23.6 15.2 53 6.2 ENE 19 22 10 12 1018.0 1018.0 0.0
23/12:30pm 25.1 23.1 13.9 49 6.6 ENE 17 20 9 11 1018.5 1018.5 0.0
23/12:00pm 25.2 23.8 14.6 51 6.3 ENE 15 19 8 10 1018.8 1018.8 0.0
23/11:30am 25.4 23.5 15.1 53 6.2 ENE 19 22 10 12 1019.3 1019.3 0.0
23/11:00am 25.3 23.4 14.1 50 6.6 ENE 17 20 9 11 1019.7 1019.7 0.0
23/10:30am 25.0 22.9 14.8 53 6.1 ENE 19 22 10 12 1020.0 1020.0 0.0
23/10:00am 25.1 23.9 16.0 57 5.5 ENE 17 20 9 11 1020.1 1020.1 0.0
23/09:30am 24.8 23.2 16.0 58 5.4 ENE 19 20 10 11 1020.0 1020.0 0.0
23/09:00am 24.9 23.7 16.1 58 5.4 ENE 17 22 9 12 1019.7 1019.7 0.8
23/08:30am 24.1 22.0 14.8 56 5.5 NE 19 20 10 11 1019.4 1019.4 0.8
23/08:00am 23.9 22.3 15.1 58 5.3 ENE 17 20 9 11 1019.0 1019.0 0.8
23/07:30am 22.9 20.4 15.2 62 4.6 ENE 22 24 12 13 1018.8 1018.8 0.8
23/07:00am 22.5 20.8 15.8 66 4.0 NE 19 22 10 12 1018.6 1018.6 0.8
23/06:30am 22.5 20.9 16.5 69 3.7 NE 20 24 11 13 1018.4 1018.4 0.8
23/06:00am 22.4 20.7 15.7 66 4.0 NE 19 22 10 12 1018.3 1018.3 0.8
23/05:30am 22.5 21.1 16.5 69 3.7 ENE 19 20 10 11 1018.1 1018.1 0.8
23/05:00am 22.5 21.0 16.8 70 3.5 ENE 20 28 11 15 1018.0 1018.0 0.8
23/04:30am 22.6 21.5 16.4 68 3.8 NE 17 22 9 12 1017.8 1017.8 0.8
23/04:00am 22.7 21.2 16.3 67 3.9 NE 19 24 10 13 1017.9 1017.9 0.8
23/03:30am 23.0 22.0 16.5 67 4.0 NE 17 22 9 12 1018.0 1018.0 0.8
23/03:00am 22.9 21.2 16.2 66 4.1 NE 20 24 11 13 1017.9 1017.9 0.8
23/02:30am 23.0 21.0 16.5 67 4.0 NE 22 28 12 15 1017.9 1017.9 0.8
23/02:00am 23.0 21.1 16.8 68 3.8 NE 22 28 12 15 1018.1 1018.1 0.2
23/01:30am 23.2 21.8 17.0 68 3.8 NE 20 24 11 13 1018.2 1018.2 0.0
23/01:00am 23.0 20.9 16.3 66 4.1 NE 22 28 12 15 1018.4 1018.4 0.0
23/12:30am 22.9 22.0 16.9 69 3.7 NE 17 20 9 11 1018.8 1018.8 0.0
23/12:00am 22.9 21.5 16.9 69 3.7 NE 20 26 11 14 1019.0 1019.0 0.0
 
Date/Time
EST
Temp
°C
App
Temp
°C
Dew
Point
°C
Rel
Hum
%
Delta-T
°C
Wind Press
QNH
hPa
Press
MSL
hPa
Rain since
9am
mm
Dir  Spd
km/h
Gust
km/h
Spd
kts
Gust
kts
22/11:30pm 22.9 21.6 16.9 69 3.7 NE 19 24 10 13 1019.1 1019.1 0.0
22/11:00pm 22.9 21.9 16.7 68 3.8 NE 17 20 9 11 1019.2 1019.2 0.0
22/10:30pm 22.8 21.4 17.0 70 3.6 NE 20 26 11 14 1019.2 1019.2 0.0
22/10:00pm 22.8 20.6 16.8 69 3.7 NE 24 28 13 15 1019.1 1019.1 0.0
22/09:30pm 22.9 20.0 17.1 70 3.6 NE 28 32 15 17 1018.7 1018.7 0.0
22/09:00pm 22.9 20.1 16.4 67 3.9 ENE 26 32 14 17 1018.6 1018.6 0.0
22/08:30pm 22.8 20.3 16.1 66 4.1 NE 24 26 13 14 1018.6 1018.6 0.0
22/08:00pm 22.9 20.6 15.7 64 4.3 NE 22 28 12 15 1018.5 1018.5 0.0
22/07:30pm 22.8 20.2 15.9 65 4.2 NE 24 30 13 16 1017.8 1017.8 0.0
22/07:00pm 22.7 20.3 15.3 63 4.4 NE 22 26 12 14 1017.6 1017.6 0.0
22/06:30pm 22.7 20.3 15.3 63 4.4 NE 22 24 12 13 1017.2 1017.2 0.0
22/06:00pm 22.6 21.1 16.2 67 3.9 NE 19 22 10 12 1016.8 1016.8 0.0
22/05:30pm 22.8 21.3 16.4 67 3.9 NE 19 24 10 13 1016.7 1016.7 0.0
22/05:00pm 23.2 21.3 15.8 63 4.5 NE 20 26 11 14 1016.5 1016.5 0.0
22/04:30pm 23.8 21.9 15.8 61 4.8 NE 20 24 11 13 1016.3 1016.3 0.0
22/04:00pm 24.0 22.4 16.0 61 4.9 ENE 19 22 10 12 1016.1 1016.1 0.0
22/03:30pm 23.9 22.2 16.2 62 4.7 ENE 20 24 11 13 1016.1 1016.1 0.0
22/03:00pm 24.4 23.0 16.9 63 4.6 ENE 20 26 11 14 1015.9 1015.9 0.0
22/02:30pm 24.4 23.1 16.9 63 4.6 ENE 19 22 10 12 1016.1 1016.1 0.0
22/02:00pm 24.3 23.8 16.8 63 4.6 ENE 15 19 8 10 1016.4 1016.4 0.0
22/01:30pm 24.7 24.2 16.9 62 4.8 ENE 15 20 8 11 1016.6 1016.6 0.0
22/01:00pm 24.2 23.6 16.7 63 4.6 ENE 15 19 8 10 1017.0 1017.0 0.0
22/12:30pm 24.6 24.2 16.3 60 5.1 ENE 13 19 7 10 1017.2 1017.2 0.0
22/12:00pm 24.0 24.0 16.3 62 4.7 E 11 15 6 8 1017.8 1017.8 0.0
22/11:30am 23.8 23.6 15.8 61 4.8 E 11 13 6 7 1018.3 1018.3 0.0
22/11:00am 24.0 24.3 16.0 61 4.8 E 9 13 5 7 1018.6 1018.6 0.0
22/10:30am 23.6 23.7 15.4 60 4.9 ESE 9 11 5 6 1019.0 1019.0 0.0
22/10:00am 24.3 24.6 16.0 60 5.0 ESE 9 13 5 7 1019.1 1019.1 0.0
22/09:30am 23.6 25.0 15.4 60 4.9 SSW 2 7 1 4 1019.2 1019.2 0.0
22/09:00am 22.5 22.6 15.6 65 4.1 SSW 9 13 5 7 1019.1 1019.1 0.0
22/08:30am 20.8 20.4 15.1 70 3.4 SSW 11 15 6 8 1018.9 1018.9 0.0
22/08:00am 18.8 18.9 15.5 81 1.9 S 9 13 5 7 1018.8 1018.8 0.0
22/07:30am 17.0 17.0 15.3 90 1.0 SSE 9 13 5 7 1018.6 1018.6 0.0
22/07:00am 15.7 15.5 14.6 93 0.6 SSE 9 13 5 7 1018.3 1018.3 0.0
22/06:30am 15.6 15.3 14.5 93 0.6 SSE 9 11 5 6 1018.0 1018.0 0.0
22/06:00am 15.4 15.1 14.3 93 0.6 SSE 9 11 5 6 1017.6 1017.6 0.0
22/05:30am 15.2 14.7 13.9 92 0.7 SSE 9 11 5 6 1017.4 1017.4 0.0
22/05:00am 15.5 15.1 14.2 92 0.7 SE 9 11 5 6 1017.2 1017.2 0.0
22/04:30am 15.3 14.9 14.0 92 0.7 ENE 9 13 5 7 1017.1 1017.1 0.0
22/04:00am 15.5 15.1 14.2 92 0.7 NE 9 11 5 6 1017.1 1017.1 0.0
22/03:30am 15.6 15.6 14.3 92 0.7 NE 7 9 4 5 1017.1 1017.1 0.0
22/03:00am 16.5 16.8 14.9 90 0.9 NE 7 9 4 5 1017.3 1017.3 0.0
22/02:30am 17.1 17.4 14.9 87 1.3 NE 7 9 4 5 1017.6 1017.6 0.0
22/02:00am 17.7 17.8 14.4 81 1.9 NE 7 7 4 4 1017.8 1017.8 0.0
22/01:30am 17.6 17.8 14.1 80 2.0 NE 6 7 3 4 1018.3 1018.3 0.0
22/01:00am 17.2 17.0 13.7 80 2.0 NE 7 9 4 5 1018.5 1018.5 0.0
22/12:30am 17.4 18.5 13.5 78 2.2 CALM 0 0 0 0 1018.6 1018.6 0.0
22/12:00am 18.0 18.5 12.9 72 2.8 NE 2 6 1 3 1018.8 1018.8 0.0
 
Date/Time
EST
Temp
°C
App
Temp
°C
Dew
Point
°C
Rel
Hum
%
Delta-T
°C
Wind Press
QNH
hPa
Press
MSL
hPa
Rain since
9am
mm
Dir  Spd
km/h
Gust
km/h
Spd
kts
Gust
kts
21/11:30pm 21.0 20.7 15.5 71 3.3 ENE 11 13 6 7 1018.8 1018.8 0.0
21/11:00pm 19.9 19.4 14.9 73 2.9 ENE 11 13 6 7 1018.9 1018.9 0.0
21/10:30pm 20.8 20.6 14.7 68 3.6 ENE 9 13 5 7 1019.0 1019.0 0.0
21/10:00pm 20.5 20.0 13.9 66 3.8 ENE 9 11 5 6 1019.1 1019.1 0.0
21/09:30pm 21.4 20.4 14.6 65 4.0 ENE 13 17 7 9 1018.9 1018.9 0.0
21/09:00pm 21.3 20.1 14.0 63 4.2 NE 13 17 7 9 1019.0 1019.0 0.0
21/08:30pm 21.2 19.9 13.6 62 4.4 NE 13 17 7 9 1018.7 1018.7 0.0
21/08:00pm 21.0 20.0 13.4 62 4.3 NE 11 15 6 8 1018.5 1018.5 0.0
21/07:30pm 19.9 20.1 13.1 65 3.9 NE 4 13 2 7 1018.1 1018.1 0.0
21/07:00pm 20.6 19.7 12.6 60 4.5 NE 9 11 5 6 1017.8 1017.8 0.0
21/06:30pm 21.0 19.4 12.9 60 4.6 ENE 13 17 7 9 1017.6 1017.6 0.0
21/06:00pm 21.2 19.5 12.6 58 4.9 ENE 13 15 7 8 1017.3 1017.3 0.0
21/05:30pm 21.3 19.9 12.2 56 5.1 NE 11 13 6 7 1017.0 1017.0 0.0
21/05:00pm 21.8 20.3 11.8 53 5.6 NE 11 13 6 7 1016.8 1016.8 0.0

Other Formats:

Comma delimited format used in spreadsheet applications
http://www.bom.gov.au/fwo/IDQ60801/IDQ60801.95296.axf

JavaScript Object Notation format (JSON) in row-major order
http://www.bom.gov.au/fwo/IDQ60801/IDQ60801.95296.json